createdAt,value
2023-01-29T00:04:22.644Z,8.50
2023-01-29T00:09:24.654Z,7.90
2023-01-29T00:14:27.259Z,8.90
2023-01-29T00:19:29.343Z,8.10
2023-01-29T00:24:31.366Z,7.50
2023-01-29T00:29:33.624Z,8.10
2023-01-29T00:34:35.809Z,7.90
2023-01-29T00:39:47.809Z,7.30
2023-01-29T00:44:57.108Z,8.10
2023-01-29T00:50:00.405Z,8.60
2023-01-29T00:55:05.509Z,6.50
2023-01-29T01:00:11.678Z,7.40
2023-01-29T01:05:18.997Z,6.50
2023-01-29T01:10:27.573Z,5.60
2023-01-29T01:15:40.058Z,6.90
2023-01-29T01:20:42.110Z,7.10
2023-01-29T01:25:44.159Z,7.00
2023-01-29T01:30:46.129Z,6.70
2023-01-29T01:35:48.123Z,7.20
2023-01-29T01:40:50.083Z,7.10
2023-01-29T01:45:52.050Z,6.70
2023-01-29T01:51:03.033Z,6.80
2023-01-29T01:56:09.591Z,6.60
2023-01-29T02:01:12.473Z,5.80
2023-01-29T02:06:33.140Z,5.40
2023-01-29T02:11:35.907Z,7.10
2023-01-29T02:16:38.595Z,6.80
2023-01-29T02:21:49.642Z,6.00
2023-01-29T02:27:20.578Z,7.10
2023-01-29T02:32:40.962Z,7.10
2023-01-29T02:38:09.727Z,6.20
2023-01-29T02:43:11.637Z,8.00
2023-01-29T02:48:19.772Z,6.50
2023-01-29T02:53:33.763Z,5.50
2023-01-29T02:58:59.937Z,6.80
2023-01-29T03:04:12.235Z,5.80
2023-01-29T03:09:22.440Z,7.70
2023-01-29T03:14:52.764Z,6.70
2023-01-29T03:19:55.040Z,6.60
2023-01-29T03:25:17.119Z,5.90
2023-01-29T03:30:38.339Z,6.10
2023-01-29T03:35:49.399Z,5.30
2023-01-29T03:41:19.186Z,5.60
2023-01-29T03:46:35.121Z,6.50
2023-01-29T03:52:02.586Z,4.90
2023-01-29T03:57:20.783Z,5.90
2023-01-29T04:02:30.181Z,6.50
2023-01-29T04:07:34.406Z,8.00
2023-01-29T04:12:47.655Z,7.70
2023-01-29T04:17:52.385Z,7.30
2023-01-29T04:22:54.581Z,7.40
2023-01-29T04:28:21.522Z,6.80
2023-01-29T04:33:40.011Z,6.50
2023-01-29T04:39:00.112Z,8.40
2023-01-29T04:44:06.608Z,8.20
2023-01-29T04:49:18.561Z,6.70
2023-01-29T04:54:39.366Z,5.70
2023-01-29T04:59:47.866Z,6.70
2023-01-29T05:04:51.498Z,8.40
2023-01-29T05:09:54.234Z,6.10
2023-01-29T05:15:00.427Z,6.10
2023-01-29T05:20:02.637Z,7.00
2023-01-29T05:25:25.059Z,6.70
2023-01-29T05:30:27.273Z,7.80
2023-01-29T05:35:30.522Z,7.50
2023-01-29T05:40:33.171Z,6.40
2023-01-29T05:45:35.088Z,5.70
2023-01-29T05:50:37.146Z,7.70
2023-01-29T05:55:39.241Z,8.00
2023-01-29T06:00:42.248Z,7.50
2023-01-29T06:05:44.266Z,7.80
2023-01-29T06:10:46.320Z,5.70
2023-01-29T06:15:48.587Z,8.30
2023-01-29T06:20:50.691Z,7.90
2023-01-29T06:25:52.597Z,7.40
2023-01-29T06:31:08.220Z,5.50
2023-01-29T06:36:18.395Z,8.00
2023-01-29T06:41:24.820Z,5.70
2023-01-29T06:46:26.804Z,7.00
2023-01-29T06:51:28.908Z,8.10
2023-01-29T06:56:31.431Z,7.90
2023-01-29T07:01:36.422Z,7.50
2023-01-29T07:06:39.845Z,6.40
2023-01-29T07:11:41.852Z,8.00
2023-01-29T07:16:43.954Z,7.70
2023-01-29T07:21:45.989Z,8.70
2023-01-29T07:26:47.888Z,7.50
2023-01-29T07:31:50.661Z,7.10
2023-01-29T07:36:54.534Z,4.80
2023-01-29T07:41:56.450Z,9.20
2023-01-29T07:46:58.387Z,13.40
2023-01-29T07:52:00.311Z,10.70
2023-01-29T07:57:02.218Z,12.00
2023-01-29T08:02:04.282Z,11.20
2023-01-29T08:07:06.364Z,8.30
2023-01-29T08:12:08.472Z,7.40
2023-01-29T08:17:10.749Z,6.70
2023-01-29T08:22:12.778Z,5.60
2023-01-29T08:27:14.740Z,8.20
2023-01-29T08:32:16.688Z,7.20
2023-01-29T08:37:18.608Z,7.50
2023-01-29T08:42:20.620Z,8.80
2023-01-29T08:47:22.704Z,9.90
2023-01-29T08:52:24.861Z,8.60
2023-01-29T08:57:27.725Z,10.00
2023-01-29T09:02:36.142Z,9.00
2023-01-29T09:07:38.260Z,5.90
2023-01-29T09:12:40.273Z,7.30
2023-01-29T09:17:42.908Z,8.60
2023-01-29T09:22:48.081Z,7.10
2023-01-29T09:27:50.348Z,8.40
2023-01-29T09:32:54.209Z,8.10
2023-01-29T09:37:56.934Z,8.40
2023-01-29T09:43:07.536Z,10.50
2023-01-29T09:48:11.526Z,7.90
2023-01-29T09:53:25.913Z,9.20
2023-01-29T09:58:38.447Z,7.00
2023-01-29T10:04:05.872Z,8.20
2023-01-29T10:09:29.040Z,10.50
2023-01-29T10:14:37.999Z,8.30
2023-01-29T10:19:52.312Z,10.60
2023-01-29T10:25:00.364Z,11.60
2023-01-29T10:30:09.141Z,10.50
2023-01-29T10:35:31.205Z,9.90
2023-01-29T10:40:47.014Z,8.40
2023-01-29T10:46:07.364Z,9.20
2023-01-29T10:51:46.662Z,8.80
2023-01-29T10:57:38.236Z,8.80
2023-01-29T11:02:45.925Z,8.90
2023-01-29T11:07:56.255Z,8.90
2023-01-29T11:12:59.363Z,9.20
2023-01-29T11:18:13.240Z,8.70
2023-01-29T11:23:30.794Z,10.00
2023-01-29T11:28:36.211Z,8.40
2023-01-29T11:33:38.351Z,8.10
2023-01-29T11:38:40.294Z,9.80
2023-01-29T11:43:42.220Z,10.60
2023-01-29T11:48:49.750Z,9.80
2023-01-29T11:53:58.291Z,11.10
2023-01-29T11:59:04.707Z,9.60
2023-01-29T12:04:21.874Z,9.80
2023-01-29T12:09:28.950Z,9.70
2023-01-29T12:14:36.755Z,10.70
2023-01-29T12:20:00.588Z,8.60
2023-01-29T12:25:36.236Z,7.30
2023-01-29T12:31:13.776Z,8.90
2023-01-29T12:36:32.292Z,11.90
2023-01-29T12:41:38.270Z,11.80
2023-01-29T12:46:52.689Z,11.20
2023-01-29T12:52:06.977Z,10.50
2023-01-29T12:57:20.613Z,11.50
2023-01-29T13:02:39.585Z,10.90
2023-01-29T13:07:47.041Z,10.90
2023-01-29T13:13:06.959Z,11.10
2023-01-29T13:18:18.299Z,8.60
2023-01-29T13:23:24.164Z,11.10
2023-01-29T13:28:27.726Z,10.70
2023-01-29T13:33:30.421Z,13.20
2023-01-29T13:38:35.073Z,11.60
2023-01-29T13:43:43.047Z,13.40
2023-01-29T13:48:49.261Z,11.60
2023-01-29T13:54:07.437Z,10.80
2023-01-29T13:59:44.719Z,9.80
2023-01-29T14:04:46.736Z,11.30
2023-01-29T14:09:50.731Z,8.60
2023-01-29T14:14:59.087Z,9.70
2023-01-29T14:20:17.052Z,12.30
2023-01-29T14:25:22.233Z,12.60
2023-01-29T14:30:27.562Z,11.60
2023-01-29T14:35:33.747Z,11.30
2023-01-29T14:40:36.831Z,9.00
2023-01-29T14:45:44.246Z,9.40
2023-01-29T14:50:50.137Z,9.90
2023-01-29T14:56:14.277Z,10.10
2023-01-29T15:01:39.227Z,12.00
2023-01-29T15:06:48.226Z,9.60
2023-01-29T15:12:00.238Z,11.20
2023-01-29T15:17:06.518Z,10.60
2023-01-29T15:22:21.453Z,9.80
2023-01-29T15:27:23.503Z,10.70
2023-01-29T15:32:34.817Z,11.80
2023-01-29T15:37:38.021Z,10.70
2023-01-29T15:42:48.314Z,10.90
2023-01-29T15:47:51.274Z,8.30
2023-01-29T15:52:55.025Z,10.60
2023-01-29T15:57:57.604Z,11.20
2023-01-29T16:03:01.209Z,8.10
2023-01-29T16:08:04.965Z,11.20
2023-01-29T16:13:19.183Z,8.20
2023-01-29T16:18:24.817Z,9.00
2023-01-29T16:23:30.884Z,9.00
2023-01-29T16:28:39.248Z,10.00
2023-01-29T16:33:45.836Z,7.60
2023-01-29T16:39:17.672Z,8.50
2023-01-29T16:44:19.646Z,10.20
2023-01-29T16:49:31.210Z,7.40
2023-01-29T16:54:33.226Z,8.60
2023-01-29T16:59:39.929Z,8.30
2023-01-29T17:04:42.581Z,8.90
2023-01-29T17:09:51.568Z,9.10
2023-01-29T17:15:03.934Z,10.80
2023-01-29T17:20:14.381Z,11.00
2023-01-29T17:25:19.029Z,7.90
2023-01-29T17:30:23.652Z,10.20
2023-01-29T17:35:25.716Z,10.40
2023-01-29T17:40:42.595Z,11.50
2023-01-29T17:45:45.075Z,9.10
2023-01-29T17:50:50.803Z,10.40
2023-01-29T17:55:53.083Z,9.30
2023-01-29T18:00:55.587Z,8.30
2023-01-29T18:05:57.846Z,7.90
2023-01-29T18:11:00.462Z,8.40
2023-01-29T18:16:03.579Z,7.60
2023-01-29T18:21:07.655Z,10.00
2023-01-29T18:26:11.519Z,9.40
2023-01-29T18:31:14.336Z,8.90
2023-01-29T18:36:16.838Z,9.10
2023-01-29T18:41:22.932Z,8.40
2023-01-29T18:46:29.047Z,8.10
2023-01-29T18:51:31.609Z,6.70
2023-01-29T18:56:34.298Z,8.20
2023-01-29T19:01:36.608Z,8.80
2023-01-29T19:06:38.779Z,6.40
2023-01-29T19:11:40.858Z,6.60
2023-01-29T19:16:43.712Z,6.60
2023-01-29T19:21:45.795Z,8.10
2023-01-29T19:26:48.693Z,9.20
2023-01-29T19:31:50.869Z,8.50
2023-01-29T19:36:52.900Z,6.80
2023-01-29T19:41:55.014Z,9.10
2023-01-29T19:46:57.438Z,11.70
2023-01-29T19:52:01.918Z,9.40
2023-01-29T19:57:04.255Z,10.70
2023-01-29T20:02:06.571Z,9.60
2023-01-29T20:07:08.941Z,8.80
2023-01-29T20:12:11.937Z,7.20
2023-01-29T20:17:15.648Z,8.70
2023-01-29T20:22:18.100Z,9.70
2023-01-29T20:27:20.196Z,9.50
2023-01-29T20:32:22.249Z,8.00
2023-01-29T20:37:24.482Z,6.50
2023-01-29T20:42:26.643Z,7.00
2023-01-29T20:47:28.711Z,9.10
2023-01-29T20:52:30.705Z,9.20
2023-01-29T20:57:33.008Z,9.30
2023-01-29T21:02:35.309Z,9.00
2023-01-29T21:07:37.307Z,10.10
2023-01-29T21:12:39.429Z,7.50
2023-01-29T21:17:41.350Z,7.90
2023-01-29T21:22:44.519Z,8.80
2023-01-29T21:27:46.606Z,8.20
2023-01-29T21:32:48.563Z,8.10
2023-01-29T21:37:50.611Z,9.60
2023-01-29T21:43:15.020Z,9.10
2023-01-29T21:48:17.000Z,6.80
2023-01-29T21:53:19.817Z,8.60
2023-01-29T21:58:21.906Z,6.00
2023-01-29T22:03:23.967Z,8.50
2023-01-29T22:08:25.980Z,8.60
2023-01-29T22:13:27.953Z,9.40
2023-01-29T22:18:29.909Z,8.40
2023-01-29T22:23:32.320Z,10.80
2023-01-29T22:28:34.713Z,9.00
2023-01-29T22:33:36.959Z,7.80
2023-01-29T22:38:39.031Z,9.90
2023-01-29T22:43:41.073Z,7.80
2023-01-29T22:48:43.652Z,9.90
2023-01-29T22:53:54.315Z,9.70
2023-01-29T22:58:59.145Z,9.20
2023-01-29T23:04:01.071Z,8.40
2023-01-29T23:09:03.231Z,10.00
2023-01-29T23:14:05.212Z,9.50
2023-01-29T23:19:07.378Z,9.60
2023-01-29T23:24:09.969Z,11.30
2023-01-29T23:29:12.817Z,7.40
2023-01-29T23:34:15.163Z,8.50
2023-01-29T23:39:17.291Z,9.80
2023-01-29T23:44:20.191Z,9.60
2023-01-29T23:49:22.292Z,8.70
2023-01-29T23:54:24.621Z,8.10
2023-01-29T23:59:28.526Z,6.70
